createdAt,value
2022-12-11T00:03:25.181Z,-5.30
2022-12-11T00:08:27.345Z,-5.31
2022-12-11T00:13:29.060Z,-5.33
2022-12-11T00:18:30.651Z,-5.37
2022-12-11T00:23:33.952Z,-5.43
2022-12-11T00:28:36.125Z,-5.46
2022-12-11T00:33:41.776Z,-5.49
2022-12-11T00:38:43.811Z,-5.54
2022-12-11T00:43:45.375Z,-5.59
2022-12-11T00:48:48.506Z,-5.68
2022-12-11T00:53:49.959Z,-5.76
2022-12-11T00:58:51.358Z,-5.90
2022-12-11T01:03:53.770Z,-6.06
2022-12-11T01:09:13.863Z,-6.11
2022-12-11T01:14:15.377Z,-6.19
2022-12-11T01:19:16.791Z,-6.25
2022-12-11T01:24:18.243Z,-6.37
2022-12-11T01:29:19.716Z,-6.49
2022-12-11T01:34:21.225Z,-6.56
2022-12-11T01:39:22.962Z,-6.60
2022-12-11T01:44:24.369Z,-6.67
2022-12-11T01:49:28.782Z,-6.82
2022-12-11T01:54:31.425Z,-6.88
2022-12-11T01:59:37.454Z,-6.90
2022-12-11T02:04:41.004Z,-6.99
2022-12-11T02:09:45.303Z,-6.95
2022-12-11T02:14:59.714Z,-7.02
2022-12-11T02:20:11.482Z,-7.06
2022-12-11T02:25:38.594Z,-7.10
2022-12-11T02:30:42.373Z,-7.11
2022-12-11T02:35:46.056Z,-7.16
2022-12-11T02:40:51.710Z,-7.22
2022-12-11T02:45:54.169Z,-7.27
2022-12-11T02:50:57.974Z,-7.26
2022-12-11T02:56:09.388Z,-7.38
2022-12-11T03:01:10.904Z,-7.25
2022-12-11T03:06:18.274Z,-7.20
2022-12-11T03:11:19.694Z,-7.20
2022-12-11T03:16:36.945Z,-7.19
2022-12-11T03:21:44.534Z,-7.13
2022-12-11T03:26:56.872Z,-7.13
2022-12-11T03:32:08.342Z,-7.21
2022-12-11T03:37:13.467Z,-7.25
2022-12-11T03:42:16.914Z,-7.24
2022-12-11T03:47:22.514Z,-7.18
2022-12-11T03:52:27.827Z,-7.18
2022-12-11T03:57:33.540Z,-7.15
2022-12-11T04:02:35.023Z,-7.19
2022-12-11T04:07:36.703Z,-7.19
2022-12-11T04:12:38.160Z,-7.12
2022-12-11T04:17:58.180Z,-7.09
2022-12-11T04:23:18.352Z,-7.10
2022-12-11T04:28:19.835Z,-7.11
2022-12-11T04:33:21.343Z,-7.18
2022-12-11T04:38:22.780Z,-7.15
2022-12-11T04:43:24.261Z,-7.20
2022-12-11T04:48:25.728Z,-7.27
2022-12-11T04:53:28.034Z,-7.33
2022-12-11T04:58:29.421Z,-7.41
2022-12-11T05:03:30.884Z,-7.51
2022-12-11T05:08:35.658Z,-7.62
2022-12-11T05:13:37.091Z,-7.58
2022-12-11T05:18:39.004Z,-7.61
2022-12-11T05:23:41.321Z,-7.62
2022-12-11T05:28:43.939Z,-7.76
2022-12-11T05:33:46.227Z,-7.71
2022-12-11T05:38:48.505Z,-7.76
2022-12-11T05:43:50.060Z,-7.76
2022-12-11T05:48:55.347Z,-7.82
2022-12-11T05:53:57.852Z,-7.78
2022-12-11T05:59:01.581Z,-7.85
2022-12-11T06:04:04.984Z,-7.92
2022-12-11T06:09:06.848Z,-7.99
2022-12-11T06:14:10.255Z,-8.05
2022-12-11T06:19:15.606Z,-8.08
2022-12-11T06:24:17.061Z,-8.15
2022-12-11T06:29:18.533Z,-8.21
2022-12-11T06:34:19.985Z,-8.21
2022-12-11T06:39:21.480Z,-8.24
2022-12-11T06:44:23.052Z,-8.19
2022-12-11T06:49:24.475Z,-8.09
2022-12-11T06:54:27.313Z,-8.09
2022-12-11T06:59:28.710Z,-8.04
2022-12-11T07:04:30.743Z,-8.03
2022-12-11T07:09:32.322Z,-8.07
2022-12-11T07:14:33.932Z,-8.10
2022-12-11T07:19:35.436Z,-8.08
2022-12-11T07:24:36.871Z,-8.06
2022-12-11T07:29:38.258Z,-8.03
2022-12-11T07:34:40.025Z,-8.04
2022-12-11T07:39:41.499Z,-7.97
2022-12-11T07:44:42.914Z,-7.93
2022-12-11T07:49:44.368Z,-7.78
2022-12-11T07:54:45.766Z,-7.67
2022-12-11T07:59:47.158Z,-7.66
2022-12-11T08:04:49.959Z,-7.66
2022-12-11T08:09:51.419Z,-7.59
2022-12-11T08:14:52.822Z,-7.52
2022-12-11T08:19:54.306Z,-7.44
2022-12-11T08:24:55.772Z,-7.29
2022-12-11T08:29:57.175Z,-6.97
2022-12-11T08:34:58.587Z,-6.51
2022-12-11T08:40:00.153Z,-6.21
2022-12-11T08:45:01.739Z,-6.11
2022-12-11T08:50:04.322Z,-6.02
2022-12-11T08:55:06.374Z,-5.94
2022-12-11T09:00:09.398Z,-5.79
2022-12-11T09:05:11.062Z,-5.59
2022-12-11T09:10:12.691Z,-5.44
2022-12-11T09:15:14.314Z,-5.10
2022-12-11T09:20:15.896Z,-4.01
2022-12-11T09:25:17.448Z,-1.51
2022-12-11T09:30:18.923Z,2.65
2022-12-11T09:35:20.539Z,5.82
2022-12-11T09:40:22.041Z,7.06
2022-12-11T09:45:23.668Z,6.79
2022-12-11T09:50:33.138Z,8.68
2022-12-11T09:55:56.066Z,10.40
2022-12-11T10:01:25.902Z,10.81
2022-12-11T10:06:35.847Z,9.36
2022-12-11T10:11:54.439Z,10.51
2022-12-11T10:17:10.543Z,10.50
2022-12-11T10:22:24.548Z,11.68
2022-12-11T10:27:33.396Z,12.10
2022-12-11T10:32:56.848Z,13.06
2022-12-11T10:38:11.512Z,12.83
2022-12-11T10:43:13.117Z,13.07
2022-12-11T10:48:14.595Z,12.42
2022-12-11T10:53:21.481Z,13.35
2022-12-11T10:58:26.194Z,14.48
2022-12-11T11:03:28.370Z,14.69
2022-12-11T11:08:39.415Z,14.96
2022-12-11T11:13:40.984Z,13.83
2022-12-11T11:18:48.650Z,14.02
2022-12-11T11:23:54.300Z,10.18
2022-12-11T11:28:57.086Z,10.12
2022-12-11T11:34:03.917Z,11.19
2022-12-11T11:39:26.032Z,12.15
2022-12-11T11:44:33.789Z,12.69
2022-12-11T11:49:41.826Z,14.45
2022-12-11T11:54:56.634Z,12.95
2022-12-11T12:00:09.737Z,11.75
2022-12-11T12:05:15.926Z,12.05
2022-12-11T12:10:40.268Z,12.53
2022-12-11T12:15:58.679Z,12.91
2022-12-11T12:21:42.251Z,13.19
2022-12-11T12:27:09.996Z,10.17
2022-12-11T12:32:42.391Z,11.98
2022-12-11T12:38:02.742Z,12.42
2022-12-11T12:43:37.011Z,9.89
2022-12-11T12:48:38.971Z,11.51
2022-12-11T12:53:45.784Z,10.74
2022-12-11T12:58:47.282Z,12.45
2022-12-11T13:03:53.699Z,12.83
2022-12-11T13:08:55.761Z,11.99
2022-12-11T13:14:06.433Z,12.10
2022-12-11T13:19:42.326Z,11.75
2022-12-11T13:24:53.393Z,9.47
2022-12-11T13:30:05.730Z,7.99
2022-12-11T13:35:14.311Z,7.98
2022-12-11T13:40:23.034Z,8.72
2022-12-11T13:45:44.076Z,7.86
2022-12-11T13:50:46.473Z,7.21
2022-12-11T13:56:00.245Z,6.69
2022-12-11T14:01:06.138Z,4.28
2022-12-11T14:06:18.291Z,2.75
2022-12-11T14:11:47.659Z,2.07
2022-12-11T14:16:52.323Z,1.65
2022-12-11T14:22:02.843Z,1.56
2022-12-11T14:27:04.848Z,0.49
2022-12-11T14:32:07.656Z,0.16
2022-12-11T14:37:10.598Z,-0.09
2022-12-11T14:42:20.067Z,-0.31
2022-12-11T14:47:32.306Z,-0.33
2022-12-11T14:52:39.930Z,-0.44
2022-12-11T14:57:45.456Z,-0.56
2022-12-11T15:03:01.675Z,-0.77
2022-12-11T15:08:12.962Z,-1.26
2022-12-11T15:13:16.685Z,-1.32
2022-12-11T15:18:40.749Z,-1.50
2022-12-11T15:23:53.074Z,-1.62
2022-12-11T15:29:00.633Z,-1.48
2022-12-11T15:34:02.560Z,-1.57
2022-12-11T15:39:08.590Z,-1.65
2022-12-11T15:44:19.957Z,-1.75
2022-12-11T15:49:24.159Z,-1.86
2022-12-11T15:54:25.632Z,-2.00
2022-12-11T15:59:27.472Z,-2.24
2022-12-11T16:04:28.887Z,-2.36
2022-12-11T16:09:30.301Z,-2.48
2022-12-11T16:14:31.762Z,-2.63
2022-12-11T16:19:34.030Z,-2.82
2022-12-11T16:24:36.481Z,-3.04
2022-12-11T16:29:41.252Z,-3.01
2022-12-11T16:34:42.587Z,-3.11
2022-12-11T16:39:45.932Z,-3.23
2022-12-11T16:44:48.120Z,-3.32
2022-12-11T16:49:50.163Z,-3.46
2022-12-11T16:54:51.644Z,-3.58
2022-12-11T16:59:53.066Z,-3.61
2022-12-11T17:04:54.520Z,-3.61
2022-12-11T17:09:55.931Z,-3.71
2022-12-11T17:14:57.498Z,-3.83
2022-12-11T17:19:59.007Z,-3.83
2022-12-11T17:25:00.403Z,-3.84
2022-12-11T17:30:01.875Z,-3.88
2022-12-11T17:35:03.560Z,-3.87
2022-12-11T17:40:05.708Z,-3.93
2022-12-11T17:45:27.210Z,-4.07
2022-12-11T17:50:28.688Z,-4.10
2022-12-11T17:55:31.200Z,-4.17
2022-12-11T18:00:33.499Z,-4.13
2022-12-11T18:05:40.423Z,-4.18
2022-12-11T18:10:42.686Z,-4.33
2022-12-11T18:15:44.510Z,-4.35
2022-12-11T18:20:47.987Z,-4.37
2022-12-11T18:25:49.488Z,-4.41
2022-12-11T18:30:52.021Z,-4.53
2022-12-11T18:35:53.672Z,-4.52
2022-12-11T18:40:55.200Z,-4.53
2022-12-11T18:45:56.687Z,-4.57
2022-12-11T18:50:58.659Z,-4.69
2022-12-11T18:56:00.898Z,-4.89
2022-12-11T19:01:16.002Z,-5.08
2022-12-11T19:06:20.685Z,-5.10
2022-12-11T19:11:24.545Z,-5.21
2022-12-11T19:16:29.627Z,-5.32
2022-12-11T19:21:31.665Z,-5.39
2022-12-11T19:26:33.475Z,-5.44
2022-12-11T19:31:35.168Z,-5.49
2022-12-11T19:36:37.194Z,-5.55
2022-12-11T19:41:38.661Z,-5.63
2022-12-11T19:46:40.234Z,-5.73
2022-12-11T19:51:43.270Z,-5.92
2022-12-11T19:56:45.407Z,-6.02
2022-12-11T20:01:48.205Z,-6.08
2022-12-11T20:06:50.054Z,-6.08
2022-12-11T20:11:51.535Z,-6.01
2022-12-11T20:17:11.057Z,-6.05
2022-12-11T20:22:13.711Z,-5.88
2022-12-11T20:27:15.168Z,-5.79
2022-12-11T20:32:16.608Z,-5.72
2022-12-11T20:37:18.071Z,-5.74
2022-12-11T20:42:19.512Z,-5.84
2022-12-11T20:47:21.342Z,-5.82
2022-12-11T20:52:23.046Z,-5.95
2022-12-11T20:57:24.476Z,-6.04
2022-12-11T21:02:26.308Z,-6.14
2022-12-11T21:07:27.786Z,-6.07
2022-12-11T21:12:31.717Z,-6.18
2022-12-11T21:17:34.811Z,-6.26
2022-12-11T21:22:36.307Z,-6.34
2022-12-11T21:27:37.820Z,-6.56
2022-12-11T21:32:39.275Z,-6.59
2022-12-11T21:37:41.784Z,-6.63
2022-12-11T21:42:43.256Z,-6.75
2022-12-11T21:47:44.722Z,-6.85
2022-12-11T21:52:46.216Z,-6.91
2022-12-11T21:57:47.895Z,-6.84
2022-12-11T22:02:49.568Z,-6.88
2022-12-11T22:07:51.093Z,-6.99
2022-12-11T22:12:52.623Z,-7.03
2022-12-11T22:17:54.139Z,-7.06
2022-12-11T22:22:56.805Z,-7.13
2022-12-11T22:27:58.271Z,-7.06
2022-12-11T22:32:59.692Z,-7.03
2022-12-11T22:38:01.481Z,-6.95
2022-12-11T22:43:02.903Z,-6.81
2022-12-11T22:48:04.885Z,-6.62
2022-12-11T22:53:07.607Z,-6.44
2022-12-11T22:58:09.019Z,-6.51
2022-12-11T23:03:10.501Z,-6.62
2022-12-11T23:08:12.054Z,-6.73
2022-12-11T23:13:13.647Z,-6.86
2022-12-11T23:18:15.467Z,-6.95
2022-12-11T23:23:17.070Z,-6.99
2022-12-11T23:28:18.587Z,-7.06
2022-12-11T23:33:20.128Z,-7.18
2022-12-11T23:38:21.567Z,-7.32
2022-12-11T23:43:23.208Z,-7.32
2022-12-11T23:48:24.705Z,-7.16
2022-12-11T23:53:27.123Z,-7.13
2022-12-11T23:58:28.599Z,-7.16
